Time,TemperatureF,DewpointF,PressureIn,WindDirection,WindDirectionDegrees,WindSpeedMPH,WindSpeedGustMPH,Humidity,HourlyPrecipIn,Conditions,Clouds,dailyrainin,SoftwareType,DateUTC
2013-08-07 00:14:00,85.1,74.0,29.75,SSE,148,2.0,7.0,70,0.00,,,0.00,weatherlink.com 1.10,2013-08-07 05:14:00,
2013-08-07 00:29:00,84.9,75.0,29.75,South,189,0.0,7.0,71,0.00,,,0.00,weatherlink.com 1.10,2013-08-07 05:29:00,
2013-08-07 00:44:00,84.5,74.0,29.75,South,182,0.0,5.0,71,0.00,,,0.00,weatherlink.com 1.10,2013-08-07 05:44:00,
2013-08-07 00:59:00,84.1,74.0,29.75,SSE,157,0.0,4.0,72,0.00,,,0.00,weatherlink.com 1.10,2013-08-07 05:59:00,
2013-08-07 01:14:00,83.6,74.0,29.75,SE,144,0.0,5.0,73,0.00,,,0.00,weatherlink.com 1.10,2013-08-07 06:14:00,
2013-08-07 01:29:00,83.3,75.0,29.75,SSE,163,0.0,5.0,75,0.00,,,0.00,weatherlink.com 1.10,2013-08-07 06:29:00,
2013-08-07 01:44:00,83.0,74.0,29.75,South,182,0.0,6.0,75,0.00,,,0.00,weatherlink.com 1.10,2013-08-07 06:44:00,
2013-08-07 01:59:00,82.8,75.0,29.75,South,187,0.0,2.0,76,0.00,,,0.00,weatherlink.com 1.10,2013-08-07 06:59:00,
2013-08-07 02:14:00,82.4,74.0,29.75,South,190,0.0,2.0,76,0.00,,,0.00,weatherlink.com 1.10,2013-08-07 07:14:00,
2013-08-07 02:29:00,82.1,74.0,29.75,SSW,198,0.0,5.0,77,0.00,,,0.00,weatherlink.com 1.10,2013-08-07 07:29:00,
2013-08-07 02:44:00,81.8,74.0,29.77,NW,308,0.0,1.0,78,0.00,,,0.00,weatherlink.com 1.10,2013-08-07 07:44:00,
2013-08-07 02:59:00,81.8,74.0,29.78,NW,313,0.0,3.0,76,0.00,,,0.00,weatherlink.com 1.10,2013-08-07 07:59:00,
2013-08-07 03:14:00,82.1,73.0,29.78,NW,313,0.0,0.0,74,0.00,,,0.00,weatherlink.com 1.10,2013-08-07 08:14:00,
2013-08-07 03:29:00,82.3,73.0,29.77,NW,313,0.0,0.0,73,0.00,,,0.00,weatherlink.com 1.10,2013-08-07 08:29:00,
2013-08-07 03:44:00,82.1,73.0,29.77,NW,313,0.0,0.0,74,0.00,,,0.00,weatherlink.com 1.10,2013-08-07 08:44:00,
2013-08-07 03:59:00,81.9,73.0,29.76,NW,313,0.0,0.0,75,0.00,,,0.00,weatherlink.com 1.10,2013-08-07 08:59:00,
2013-08-07 04:14:00,81.4,73.0,29.75,NW,313,0.0,0.0,76,0.00,,,0.00,weatherlink.com 1.10,2013-08-07 09:14:00,
2013-08-07 04:29:00,81.0,72.0,29.75,ESE,113,0.0,0.0,75,0.00,,,0.00,weatherlink.com 1.10,2013-08-07 09:29:00,
2013-08-07 04:44:00,80.5,73.0,29.76,ESE,113,0.0,0.0,77,0.00,,,0.00,weatherlink.com 1.10,2013-08-07 09:44:00,
2013-08-07 04:59:00,79.9,73.0,29.76,ESE,122,0.0,2.0,78,0.00,,,0.00,weatherlink.com 1.10,2013-08-07 09:59:00,
2013-08-07 05:14:00,79.6,72.0,29.76,SE,126,0.0,1.0,78,0.00,,,0.00,weatherlink.com 1.10,2013-08-07 10:14:00,
2013-08-07 05:29:00,79.7,72.0,29.76,SE,136,0.0,1.0,77,0.00,,,0.00,weatherlink.com 1.10,2013-08-07 10:29:00,
2013-08-07 05:44:00,79.7,72.0,29.75,SE,136,0.0,1.0,76,0.00,,,0.00,weatherlink.com 1.10,2013-08-07 10:44:00,
2013-08-07 05:59:00,80.0,71.0,29.75,SSE,157,0.0,7.0,75,0.00,,,0.00,weatherlink.com 1.10,2013-08-07 10:59:00,
2013-08-07 06:14:00,80.3,72.0,29.75,SSE,156,0.0,4.0,75,0.00,,,0.00,weatherlink.com 1.10,2013-08-07 11:14:00,
2013-08-07 06:29:00,79.9,72.0,29.75,South,178,0.0,5.0,77,0.00,,,0.00,weatherlink.com 1.10,2013-08-07 11:29:00,
2013-08-07 06:44:00,79.5,72.0,29.75,SSE,165,0.0,2.0,77,0.00,,,0.00,weatherlink.com 1.10,2013-08-07 11:44:00,
2013-08-07 06:59:00,79.3,72.0,29.76,SSE,163,0.0,1.0,78,0.00,,,0.00,weatherlink.com 1.10,2013-08-07 11:59:00,
2013-08-07 07:14:00,79.4,72.0,29.77,NE,42,0.0,1.0,78,0.00,,,0.00,weatherlink.com 1.10,2013-08-07 12:14:00,
2013-08-07 07:29:00,79.4,72.0,29.78,North,9,0.0,1.0,79,0.00,,,0.00,weatherlink.com 1.10,2013-08-07 12:29:00,
2013-08-07 07:44:00,79.7,73.0,29.78,North,9,0.0,0.0,79,0.00,,,0.00,weatherlink.com 1.10,2013-08-07 12:44:00,
2013-08-07 07:59:00,80.2,73.0,29.79,SE,132,0.0,1.0,78,0.00,,,0.00,weatherlink.com 1.10,2013-08-07 12:59:00,
2013-08-07 08:14:00,80.3,73.0,29.80,SE,132,0.0,0.0,79,0.00,,,0.00,weatherlink.com 1.10,2013-08-07 13:14:00,
2013-08-07 08:29:00,80.2,73.0,29.80,SE,131,0.0,5.0,79,0.00,,,0.00,weatherlink.com 1.10,2013-08-07 13:29:00,
2013-08-07 08:44:00,80.5,73.0,29.80,SE,145,0.0,8.0,79,0.00,,,0.00,weatherlink.com 1.10,2013-08-07 13:44:00,
2013-08-07 08:59:00,81.8,73.0,29.80,SE,130,0.0,8.0,75,0.00,,,0.00,weatherlink.com 1.10,2013-08-07 13:59:00,
2013-08-07 09:14:00,83.2,74.0,29.80,South,180,2.0,11.0,73,0.00,,,0.00,weatherlink.com 1.10,2013-08-07 14:14:00,
2013-08-07 09:29:00,84.6,75.0,29.79,SSE,156,2.0,11.0,72,0.00,,,0.00,weatherlink.com 1.10,2013-08-07 14:29:00,
2013-08-07 09:44:00,86.0,75.0,29.79,South,185,9.0,13.0,70,0.00,,,0.00,weatherlink.com 1.10,2013-08-07 14:44:00,
2013-08-07 09:59:00,86.7,74.0,29.80,SSW,193,4.0,11.0,66,0.00,,,0.00,weatherlink.com 1.10,2013-08-07 14:59:00,
2013-08-07 10:14:00,87.8,75.0,29.81,SE,134,0.0,6.0,66,0.00,,,0.00,weatherlink.com 1.10,2013-08-07 15:14:00,
2013-08-07 10:30:00,88.5,74.0,29.82,SE,137,0.0,6.0,63,0.00,,,0.00,weatherlink.com 1.10,2013-08-07 15:30:00,
2013-08-07 10:45:00,89.9,75.0,29.82,SE,142,0.0,0.0,62,0.00,,,0.00,weatherlink.com 1.10,2013-08-07 15:45:00,
2013-08-07 11:00:00,90.7,75.0,29.82,SE,142,0.0,3.0,61,0.00,,,0.00,weatherlink.com 1.10,2013-08-07 16:00:00,
2013-08-07 11:15:00,91.1,75.0,29.82,NE,36,0.0,4.0,59,0.00,,,0.00,weatherlink.com 1.10,2013-08-07 16:15:00,
2013-08-07 11:30:00,91.1,76.0,29.82,NE,42,0.0,4.0,61,0.00,,,0.00,weatherlink.com 1.10,2013-08-07 16:30:00,
2013-08-07 11:45:00,91.6,76.0,29.81,SE,146,1.0,5.0,61,0.00,,,0.00,weatherlink.com 1.10,2013-08-07 16:45:00,
2013-08-07 12:00:00,91.8,75.0,29.82,SE,131,0.0,3.0,58,0.00,,,0.00,weatherlink.com 1.10,2013-08-07 17:00:00,
2013-08-07 12:15:00,92.4,75.0,29.82,SE,130,0.0,7.0,58,0.00,,,0.00,weatherlink.com 1.10,2013-08-07 17:15:00,
2013-08-07 12:30:00,92.8,76.0,29.82,SSW,198,6.0,8.0,58,0.00,,,0.00,weatherlink.com 1.10,2013-08-07 17:30:00,
2013-08-07 12:45:00,92.9,77.0,29.81,ENE,74,0.0,4.0,60,0.00,,,0.00,weatherlink.com 1.10,2013-08-07 17:45:00,
2013-08-07 13:00:00,93.8,76.0,29.80,ESE,113,3.0,7.0,57,0.00,,,0.00,weatherlink.com 1.10,2013-08-07 18:00:00,
2013-08-07 13:15:00,93.8,77.0,29.80,SSE,148,0.0,7.0,58,0.00,,,0.00,weatherlink.com 1.10,2013-08-07 18:15:00,
2013-08-07 13:30:00,94.4,77.0,29.80,WSW,250,0.0,10.0,57,0.00,,,0.00,weatherlink.com 1.10,2013-08-07 18:30:00,
2013-08-07 13:45:00,94.8,77.0,29.80,SE,136,3.0,6.0,57,0.00,,,0.00,weatherlink.com 1.10,2013-08-07 18:45:00,
2013-08-07 14:00:00,95.5,77.0,29.79,East,98,0.0,10.0,56,0.00,,,0.00,weatherlink.com 1.10,2013-08-07 19:00:00,
2013-08-07 14:15:00,95.4,77.0,29.79,ESE,105,0.0,9.0,56,0.00,,,0.00,weatherlink.com 1.10,2013-08-07 19:15:00,
2013-08-07 14:30:00,95.1,78.0,29.78,ENE,78,0.0,10.0,57,0.00,,,0.00,weatherlink.com 1.10,2013-08-07 19:30:00,
2013-08-07 14:45:00,94.7,77.0,29.78,SSE,148,1.0,9.0,56,0.00,,,0.00,weatherlink.com 1.10,2013-08-07 19:45:00,
2013-08-07 15:00:00,95.3,78.0,29.78,NE,36,0.0,10.0,57,0.00,,,0.00,weatherlink.com 1.10,2013-08-07 20:00:00,
2013-08-07 15:15:00,96.4,78.0,29.77,SE,134,6.0,9.0,55,0.00,,,0.00,weatherlink.com 1.10,2013-08-07 20:15:00,
2013-08-07 15:30:00,95.8,77.0,29.77,SSW,204,3.0,9.0,54,0.00,,,0.00,weatherlink.com 1.10,2013-08-07 20:30:00,
2013-08-07 15:45:00,96.4,77.0,29.77,SE,136,3.0,8.0,53,0.00,,,0.00,weatherlink.com 1.10,2013-08-07 20:45:00,
2013-08-07 16:00:00,96.4,78.0,29.76,SE,124,1.0,7.0,55,0.00,,,0.00,weatherlink.com 1.10,2013-08-07 21:00:00,
2013-08-07 16:15:00,95.9,77.0,29.77,SSE,159,3.0,8.0,54,0.00,,,0.00,weatherlink.com 1.10,2013-08-07 21:15:00,
2013-08-07 16:30:00,94.8,76.0,29.77,South,178,0.0,8.0,55,0.00,,,0.00,weatherlink.com 1.10,2013-08-07 21:30:00,
2013-08-07 16:45:00,94.7,76.0,29.77,SE,134,0.0,6.0,55,0.00,,,0.00,weatherlink.com 1.10,2013-08-07 21:45:00,
2013-08-07 17:00:00,94.4,76.0,29.76,South,180,4.0,5.0,56,0.00,,,0.00,weatherlink.com 1.10,2013-08-07 22:00:00,
2013-08-07 17:15:00,94.6,77.0,29.76,SSE,155,0.0,2.0,56,0.00,,,0.00,weatherlink.com 1.10,2013-08-07 22:15:00,
2013-08-07 17:30:00,94.6,77.0,29.76,SE,126,0.0,6.0,57,0.00,,,0.00,weatherlink.com 1.10,2013-08-07 22:30:00,
2013-08-07 17:45:00,94.3,76.0,29.76,SE,133,0.0,0.0,56,0.00,,,0.00,weatherlink.com 1.10,2013-08-07 22:45:00,
2013-08-07 18:00:00,94.2,76.0,29.76,SE,132,1.0,5.0,55,0.00,,,0.00,weatherlink.com 1.10,2013-08-07 23:00:00,
2013-08-07 18:15:00,94.3,76.0,29.75,SE,138,0.0,5.0,55,0.00,,,0.00,weatherlink.com 1.10,2013-08-07 23:15:00,
2013-08-07 18:30:00,94.3,77.0,29.76,SE,136,0.0,1.0,57,0.00,,,0.00,weatherlink.com 1.10,2013-08-07 23:30:00,
2013-08-07 18:45:00,94.6,77.0,29.75,SE,136,0.0,1.0,57,0.00,,,0.00,weatherlink.com 1.10,2013-08-07 23:45:00,
2013-08-07 19:00:00,94.0,76.0,29.75,SE,136,0.0,1.0,57,0.00,,,0.00,weatherlink.com 1.10,2013-08-08 00:00:00,
2013-08-07 19:15:00,93.1,80.0,29.75,North,9,0.0,5.0,65,0.00,,,0.00,weatherlink.com 1.10,2013-08-08 00:15:00,
2013-08-07 19:30:00,89.2,80.0,29.75,NE,38,8.0,10.0,73,0.00,,,0.00,weatherlink.com 1.10,2013-08-08 00:30:00,
2013-08-07 19:45:00,86.9,79.0,29.76,North,11,0.0,10.0,77,0.00,,,0.00,weatherlink.com 1.10,2013-08-08 00:45:00,
2013-08-07 20:00:00,85.7,79.0,29.76,North,5,0.0,9.0,79,0.00,,,0.00,weatherlink.com 1.10,2013-08-08 01:00:00,
2013-08-07 20:15:00,85.1,78.0,29.76,NNE,13,2.0,8.0,79,0.00,,,0.00,weatherlink.com 1.10,2013-08-08 01:15:00,
2013-08-07 20:30:00,84.6,77.0,29.77,NE,38,4.0,9.0,79,0.00,,,0.00,weatherlink.com 1.10,2013-08-08 01:30:00,
2013-08-07 20:45:00,84.1,77.0,29.77,NNE,13,0.0,8.0,80,0.00,,,0.00,weatherlink.com 1.10,2013-08-08 01:45:00,
2013-08-07 21:00:00,83.4,77.0,29.77,NNW,346,9.0,12.0,81,0.00,,,0.00,weatherlink.com 1.10,2013-08-08 02:00:00,
2013-08-07 21:15:00,82.5,77.0,29.77,North,5,4.0,11.0,82,0.00,,,0.00,weatherlink.com 1.10,2013-08-08 02:15:00,
2013-08-07 21:30:00,81.8,76.0,29.78,NNW,329,6.0,11.0,82,0.00,,,0.00,weatherlink.com 1.10,2013-08-08 02:30:00,
2013-08-07 21:45:00,81.6,75.0,29.79,North,355,2.0,10.0,80,0.00,,,0.00,weatherlink.com 1.10,2013-08-08 02:45:00,
2013-08-07 22:00:00,81.5,75.0,29.79,NNE,30,4.0,7.0,81,0.00,,,0.00,weatherlink.com 1.10,2013-08-08 03:00:00,
2013-08-07 22:15:00,81.2,75.0,29.80,NNE,15,0.0,9.0,82,0.00,,,0.00,weatherlink.com 1.10,2013-08-08 03:15:00,
2013-08-07 22:30:00,81.1,75.0,29.80,NNE,18,0.0,8.0,81,0.00,,,0.00,weatherlink.com 1.10,2013-08-08 03:30:00,
2013-08-07 22:45:00,81.1,74.0,29.80,NNW,343,0.0,8.0,80,0.00,,,0.00,weatherlink.com 1.10,2013-08-08 03:45:00,
2013-08-07 23:00:00,81.1,74.0,29.80,NE,34,0.0,12.0,80,0.00,,,0.00,weatherlink.com 1.10,2013-08-08 04:00:00,
2013-08-07 23:15:00,81.0,74.0,29.80,ESE,105,0.0,9.0,80,0.00,,,0.00,weatherlink.com 1.10,2013-08-08 04:15:00,
2013-08-07 23:30:00,80.7,74.0,29.79,NNE,12,0.0,7.0,80,0.00,,,0.00,weatherlink.com 1.10,2013-08-08 04:30:00,
2013-08-07 23:45:00,80.5,73.0,29.79,NNE,32,5.0,8.0,79,0.00,,,0.00,weatherlink.com 1.10,2013-08-08 04:45:00,